Fort Bayard, New Mexico
Current Conditions -  °F | °C
As of 7:55 PM on Thursday 27 Nov 2014 (Local Time) from KSVC Reporting Station
Clear Clear  
Wind Chill: 36°   Ceiling: Unl
Heat Index: 41°   Visibility: 10mi
Dew Point: 19°   Wind: 8mph
Humidity: 42%   Direction: 20°NNE
Pressure: 30.36"   Gusts: NA
Location:  32.8°N, 108.15°W
Report Text: KSVC 280255Z AUTO 02007KT 10SM CLR 05/M07 A3036 RMK AO2
Loading
Personal Weather Stations






























Interactive Weather Map New forecast layout! Learn more

10-Day Weather Forecast

Advertisements
Track Severe Weather on mobile